sensor_id;sensor_type;location;lat;lon;timestamp;temperature;humidity
64888;DHT22;51386;53.082;8.816;2022-10-16T00:00:08;16.40;77.70
64888;DHT22;51386;53.082;8.816;2022-10-16T00:02:36;16.30;77.60
64888;DHT22;51386;53.082;8.816;2022-10-16T00:05:04;16.30;77.60
64888;DHT22;51386;53.082;8.816;2022-10-16T00:07:32;16.30;77.60
64888;DHT22;51386;53.082;8.816;2022-10-16T00:09:59;16.30;77.70
64888;DHT22;51386;53.082;8.816;2022-10-16T00:12:28;16.20;77.60
64888;DHT22;51386;53.082;8.816;2022-10-16T00:14:55;16.20;77.60
64888;DHT22;51386;53.082;8.816;2022-10-16T00:17:22;16.20;77.60
64888;DHT22;51386;53.082;8.816;2022-10-16T00:19:50;16.20;77.70
64888;DHT22;51386;53.082;8.816;2022-10-16T00:22:35;16.20;77.80
64888;DHT22;51386;53.082;8.816;2022-10-16T00:25:03;16.10;77.70
64888;DHT22;51386;53.082;8.816;2022-10-16T00:27:32;16.10;77.80
64888;DHT22;51386;53.082;8.816;2022-10-16T00:30:00;16.10;77.80
64888;DHT22;51386;53.082;8.816;2022-10-16T00:32:28;16.10;77.90
64888;DHT22;51386;53.082;8.816;2022-10-16T00:34:55;16.10;78.00
64888;DHT22;51386;53.082;8.816;2022-10-16T00:37:22;16.10;78.10
64888;DHT22;51386;53.082;8.816;2022-10-16T00:39:50;16.00;78.10
64888;DHT22;51386;53.082;8.816;2022-10-16T00:42:18;16.00;78.20
64888;DHT22;51386;53.082;8.816;2022-10-16T00:44:49;15.90;78.10
64888;DHT22;51386;53.082;8.816;2022-10-16T00:47:22;16.00;78.30
64888;DHT22;51386;53.082;8.816;2022-10-16T00:49:58;15.90;78.30
64888;DHT22;51386;53.082;8.816;2022-10-16T00:52:29;15.90;78.30
64888;DHT22;51386;53.082;8.816;2022-10-16T00:54:57;15.90;78.40
64888;DHT22;51386;53.082;8.816;2022-10-16T00:57:25;15.80;78.30
64888;DHT22;51386;53.082;8.816;2022-10-16T00:59:54;15.80;78.40
64888;DHT22;51386;53.082;8.816;2022-10-16T01:02:22;15.80;78.40
64888;DHT22;51386;53.082;8.816;2022-10-16T01:04:51;15.80;78.40
64888;DHT22;51386;53.082;8.816;2022-10-16T01:07:30;15.80;78.50
64888;DHT22;51386;53.082;8.816;2022-10-16T01:10:14;15.70;78.50
64888;DHT22;51386;53.082;8.816;2022-10-16T01:12:53;15.70;78.60
64888;DHT22;51386;53.082;8.816;2022-10-16T01:15:28;15.70;78.70
64888;DHT22;51386;53.082;8.816;2022-10-16T01:18:05;15.60;78.70
64888;DHT22;51386;53.082;8.816;2022-10-16T01:20:45;15.60;78.80
64888;DHT22;51386;53.082;8.816;2022-10-16T01:23:31;15.60;78.80
64888;DHT22;51386;53.082;8.816;2022-10-16T01:26:20;15.50;78.80
64888;DHT22;51386;53.082;8.816;2022-10-16T01:29:03;15.50;79.20
64888;DHT22;51386;53.082;8.816;2022-10-16T01:31:37;15.50;79.10
64888;DHT22;51386;53.082;8.816;2022-10-16T01:34:12;15.40;79.80
64888;DHT22;51386;53.082;8.816;2022-10-16T01:36:45;15.40;79.20
64888;DHT22;51386;53.082;8.816;2022-10-16T01:39:20;15.40;79.30
64888;DHT22;51386;53.082;8.816;2022-10-16T01:41:55;15.30;79.40
64888;DHT22;51386;53.082;8.816;2022-10-16T01:44:31;15.30;79.50
64888;DHT22;51386;53.082;8.816;2022-10-16T01:47:01;15.30;79.70
64888;DHT22;51386;53.082;8.816;2022-10-16T01:49:34;15.30;79.80
64888;DHT22;51386;53.082;8.816;2022-10-16T01:52:06;15.30;80.00
64888;DHT22;51386;53.082;8.816;2022-10-16T01:54:41;15.20;80.00
64888;DHT22;51386;53.082;8.816;2022-10-16T01:57:12;15.20;80.20
64888;DHT22;51386;53.082;8.816;2022-10-16T01:59:46;15.20;80.30
64888;DHT22;51386;53.082;8.816;2022-10-16T02:02:18;15.20;80.40
64888;DHT22;51386;53.082;8.816;2022-10-16T02:04:54;15.10;80.40
64888;DHT22;51386;53.082;8.816;2022-10-16T02:07:26;15.10;80.50
64888;DHT22;51386;53.082;8.816;2022-10-16T02:09:54;15.10;80.50
64888;DHT22;51386;53.082;8.816;2022-10-16T02:12:26;15.10;81.40
64888;DHT22;51386;53.082;8.816;2022-10-16T02:14:58;15.10;80.70
64888;DHT22;51386;53.082;8.816;2022-10-16T02:17:26;15.10;80.70
64888;DHT22;51386;53.082;8.816;2022-10-16T02:19:55;15.10;80.80
64888;DHT22;51386;53.082;8.816;2022-10-16T02:22:28;15.10;80.80
64888;DHT22;51386;53.082;8.816;2022-10-16T02:25:04;15.10;80.90
64888;DHT22;51386;53.082;8.816;2022-10-16T02:27:40;15.00;80.80
64888;DHT22;51386;53.082;8.816;2022-10-16T02:30:19;15.00;80.80
64888;DHT22;51386;53.082;8.816;2022-10-16T02:32:50;15.00;80.90
64888;DHT22;51386;53.082;8.816;2022-10-16T02:35:21;15.00;81.00
64888;DHT22;51386;53.082;8.816;2022-10-16T02:37:50;15.00;81.00
64888;DHT22;51386;53.082;8.816;2022-10-16T02:40:19;15.00;81.00
64888;DHT22;51386;53.082;8.816;2022-10-16T02:42:52;15.00;81.10
64888;DHT22;51386;53.082;8.816;2022-10-16T02:45:22;15.00;81.10
64888;DHT22;51386;53.082;8.816;2022-10-16T02:47:52;15.00;81.10
64888;DHT22;51386;53.082;8.816;2022-10-16T02:50:19;15.00;81.20
64888;DHT22;51386;53.082;8.816;2022-10-16T02:52:46;14.90;81.20
64888;DHT22;51386;53.082;8.816;2022-10-16T02:55:14;14.90;81.30
64888;DHT22;51386;53.082;8.816;2022-10-16T02:57:42;14.90;81.30
64888;DHT22;51386;53.082;8.816;2022-10-16T03:00:12;14.90;81.40
64888;DHT22;51386;53.082;8.816;2022-10-16T03:02:42;14.90;81.40
64888;DHT22;51386;53.082;8.816;2022-10-16T03:05:10;14.90;81.60
64888;DHT22;51386;53.082;8.816;2022-10-16T03:07:38;14.90;81.50
64888;DHT22;51386;53.082;8.816;2022-10-16T03:10:06;14.90;81.50
64888;DHT22;51386;53.082;8.816;2022-10-16T03:12:34;14.90;81.60
64888;DHT22;51386;53.082;8.816;2022-10-16T03:15:02;14.90;81.60
64888;DHT22;51386;53.082;8.816;2022-10-16T03:17:31;14.90;81.70
64888;DHT22;51386;53.082;8.816;2022-10-16T03:20:00;14.90;81.70
64888;DHT22;51386;53.082;8.816;2022-10-16T03:22:27;14.90;81.80
64888;DHT22;51386;53.082;8.816;2022-10-16T03:24:55;14.90;81.80
64888;DHT22;51386;53.082;8.816;2022-10-16T03:27:22;14.90;81.80
64888;DHT22;51386;53.082;8.816;2022-10-16T03:29:50;14.90;81.90
64888;DHT22;51386;53.082;8.816;2022-10-16T03:32:17;14.90;81.90
64888;DHT22;51386;53.082;8.816;2022-10-16T03:34:45;14.80;81.90
64888;DHT22;51386;53.082;8.816;2022-10-16T03:37:14;14.90;82.10
64888;DHT22;51386;53.082;8.816;2022-10-16T03:39:41;14.80;82.20
64888;DHT22;51386;53.082;8.816;2022-10-16T03:42:08;14.90;82.30
64888;DHT22;51386;53.082;8.816;2022-10-16T03:44:35;14.80;82.20
64888;DHT22;51386;53.082;8.816;2022-10-16T03:47:03;14.80;82.40
64888;DHT22;51386;53.082;8.816;2022-10-16T03:49:30;14.80;82.50
64888;DHT22;51386;53.082;8.816;2022-10-16T03:51:57;14.80;82.60
64888;DHT22;51386;53.082;8.816;2022-10-16T03:54:26;14.80;82.70
64888;DHT22;51386;53.082;8.816;2022-10-16T03:56:53;14.80;82.80
64888;DHT22;51386;53.082;8.816;2022-10-16T03:59:21;14.80;83.00
64888;DHT22;51386;53.082;8.816;2022-10-16T04:01:48;14.80;83.10
64888;DHT22;51386;53.082;8.816;2022-10-16T04:04:15;14.80;83.10
64888;DHT22;51386;53.082;8.816;2022-10-16T04:06:42;14.80;83.30
64888;DHT22;51386;53.082;8.816;2022-10-16T04:09:10;14.80;83.30
64888;DHT22;51386;53.082;8.816;2022-10-16T04:11:38;14.80;83.50
64888;DHT22;51386;53.082;8.816;2022-10-16T04:14:06;14.80;83.70
64888;DHT22;51386;53.082;8.816;2022-10-16T04:16:33;14.80;83.80
64888;DHT22;51386;53.082;8.816;2022-10-16T04:19:00;14.90;84.10
64888;DHT22;51386;53.082;8.816;2022-10-16T04:21:28;14.90;84.30
64888;DHT22;51386;53.082;8.816;2022-10-16T04:23:55;14.90;84.30
64888;DHT22;51386;53.082;8.816;2022-10-16T04:26:22;14.90;84.40
64888;DHT22;51386;53.082;8.816;2022-10-16T04:28:51;14.90;84.60
64888;DHT22;51386;53.082;8.816;2022-10-16T04:31:18;14.90;84.50
64888;DHT22;51386;53.082;8.816;2022-10-16T04:33:46;14.90;84.70
64888;DHT22;51386;53.082;8.816;2022-10-16T04:36:13;14.90;84.70
64888;DHT22;51386;53.082;8.816;2022-10-16T04:38:40;14.90;84.80
64888;DHT22;51386;53.082;8.816;2022-10-16T04:41:08;14.80;84.80
64888;DHT22;51386;53.082;8.816;2022-10-16T04:43:35;14.80;84.70
64888;DHT22;51386;53.082;8.816;2022-10-16T04:46:04;14.90;85.00
64888;DHT22;51386;53.082;8.816;2022-10-16T04:48:32;14.80;85.10
64888;DHT22;51386;53.082;8.816;2022-10-16T04:50:59;14.80;85.30
64888;DHT22;51386;53.082;8.816;2022-10-16T04:53:26;14.90;85.40
64888;DHT22;51386;53.082;8.816;2022-10-16T04:55:54;14.80;85.40
64888;DHT22;51386;53.082;8.816;2022-10-16T04:58:21;14.90;85.60
64888;DHT22;51386;53.082;8.816;2022-10-16T05:00:49;14.90;85.60
64888;DHT22;51386;53.082;8.816;2022-10-16T05:03:17;14.90;85.70
64888;DHT22;51386;53.082;8.816;2022-10-16T05:05:45;14.90;85.70
64888;DHT22;51386;53.082;8.816;2022-10-16T05:08:15;14.90;86.00
64888;DHT22;51386;53.082;8.816;2022-10-16T05:10:43;14.90;86.10
64888;DHT22;51386;53.082;8.816;2022-10-16T05:13:11;14.90;86.10
64888;DHT22;51386;53.082;8.816;2022-10-16T05:15:39;14.90;86.20
64888;DHT22;51386;53.082;8.816;2022-10-16T05:18:06;14.90;86.40
64888;DHT22;51386;53.082;8.816;2022-10-16T05:20:36;14.90;86.50
64888;DHT22;51386;53.082;8.816;2022-10-16T05:23:03;14.90;86.60
64888;DHT22;51386;53.082;8.816;2022-10-16T05:25:31;14.90;86.70
64888;DHT22;51386;53.082;8.816;2022-10-16T05:27:58;15.00;86.90
64888;DHT22;51386;53.082;8.816;2022-10-16T05:30:26;15.00;86.90
64888;DHT22;51386;53.082;8.816;2022-10-16T05:32:53;15.00;87.00
64888;DHT22;51386;53.082;8.816;2022-10-16T05:35:21;15.00;87.00
64888;DHT22;51386;53.082;8.816;2022-10-16T05:37:49;15.10;87.20
64888;DHT22;51386;53.082;8.816;2022-10-16T05:40:17;15.10;87.30
64888;DHT22;51386;53.082;8.816;2022-10-16T05:42:44;15.10;87.30
64888;DHT22;51386;53.082;8.816;2022-10-16T05:45:12;15.10;87.30
64888;DHT22;51386;53.082;8.816;2022-10-16T05:47:39;15.20;87.20
64888;DHT22;51386;53.082;8.816;2022-10-16T05:50:07;15.20;87.10
64888;DHT22;51386;53.082;8.816;2022-10-16T05:52:35;15.20;87.10
64888;DHT22;51386;53.082;8.816;2022-10-16T05:55:05;15.20;87.00
64888;DHT22;51386;53.082;8.816;2022-10-16T05:57:32;15.30;87.10
64888;DHT22;51386;53.082;8.816;2022-10-16T06:00:00;15.30;87.10
64888;DHT22;51386;53.082;8.816;2022-10-16T06:02:28;15.30;86.90
64888;DHT22;51386;53.082;8.816;2022-10-16T06:04:55;15.30;86.90
64888;DHT22;51386;53.082;8.816;2022-10-16T06:07:22;15.40;86.90
64888;DHT22;51386;53.082;8.816;2022-10-16T06:09:52;15.40;86.80
64888;DHT22;51386;53.082;8.816;2022-10-16T06:12:21;15.40;86.80
64888;DHT22;51386;53.082;8.816;2022-10-16T06:14:48;15.40;86.70
64888;DHT22;51386;53.082;8.816;2022-10-16T06:17:16;15.40;86.70
64888;DHT22;51386;53.082;8.816;2022-10-16T06:19:43;15.40;86.70
64888;DHT22;51386;53.082;8.816;2022-10-16T06:22:10;15.40;86.60
64888;DHT22;51386;53.082;8.816;2022-10-16T06:24:38;15.40;86.70
64888;DHT22;51386;53.082;8.816;2022-10-16T06:27:06;15.40;87.50
64888;DHT22;51386;53.082;8.816;2022-10-16T06:29:34;15.40;86.70
64888;DHT22;51386;53.082;8.816;2022-10-16T06:32:02;15.40;86.70
64888;DHT22;51386;53.082;8.816;2022-10-16T06:34:29;15.40;86.60
64888;DHT22;51386;53.082;8.816;2022-10-16T06:36:57;15.40;86.60
64888;DHT22;51386;53.082;8.816;2022-10-16T06:39:24;15.40;86.50
64888;DHT22;51386;53.082;8.816;2022-10-16T06:41:51;15.40;86.50
64888;DHT22;51386;53.082;8.816;2022-10-16T06:44:18;15.40;86.40
64888;DHT22;51386;53.082;8.816;2022-10-16T06:46:47;15.40;86.40
64888;DHT22;51386;53.082;8.816;2022-10-16T06:49:15;15.50;86.50
64888;DHT22;51386;53.082;8.816;2022-10-16T06:51:48;15.50;86.50
64888;DHT22;51386;53.082;8.816;2022-10-16T06:54:16;15.50;86.40
64888;DHT22;51386;53.082;8.816;2022-10-16T06:56:44;15.50;86.40
64888;DHT22;51386;53.082;8.816;2022-10-16T06:59:12;15.60;86.40
64888;DHT22;51386;53.082;8.816;2022-10-16T07:01:39;15.60;86.40
64888;DHT22;51386;53.082;8.816;2022-10-16T07:04:08;15.60;86.20
64888;DHT22;51386;53.082;8.816;2022-10-16T07:06:35;15.60;86.00
64888;DHT22;51386;53.082;8.816;2022-10-16T07:09:05;15.60;86.00
64888;DHT22;51386;53.082;8.816;2022-10-16T07:11:34;15.60;85.90
64888;DHT22;51386;53.082;8.816;2022-10-16T07:14:02;15.70;85.90
64888;DHT22;51386;53.082;8.816;2022-10-16T07:16:31;15.80;85.90
64888;DHT22;51386;53.082;8.816;2022-10-16T07:19:01;15.70;85.80
64888;DHT22;51386;53.082;8.816;2022-10-16T07:21:32;15.80;85.70
64888;DHT22;51386;53.082;8.816;2022-10-16T07:24:05;15.80;85.70
64888;DHT22;51386;53.082;8.816;2022-10-16T07:26:35;15.90;85.70
64888;DHT22;51386;53.082;8.816;2022-10-16T07:29:03;15.90;85.50
64888;DHT22;51386;53.082;8.816;2022-10-16T07:31:31;16.00;85.50
64888;DHT22;51386;53.082;8.816;2022-10-16T07:33:59;16.00;85.10
64888;DHT22;51386;53.082;8.816;2022-10-16T07:36:27;16.20;85.10
64888;DHT22;51386;53.082;8.816;2022-10-16T07:38:56;16.30;84.90
64888;DHT22;51386;53.082;8.816;2022-10-16T07:41:26;16.30;84.40
64888;DHT22;51386;53.082;8.816;2022-10-16T07:43:55;16.40;84.10
64888;DHT22;51386;53.082;8.816;2022-10-16T07:46:26;16.40;83.80
64888;DHT22;51386;53.082;8.816;2022-10-16T07:48:54;16.50;83.60
64888;DHT22;51386;53.082;8.816;2022-10-16T07:51:23;16.50;83.40
64888;DHT22;51386;53.082;8.816;2022-10-16T07:53:52;16.50;83.30
64888;DHT22;51386;53.082;8.816;2022-10-16T07:56:21;16.60;83.40
64888;DHT22;51386;53.082;8.816;2022-10-16T07:58:50;16.60;83.30
64888;DHT22;51386;53.082;8.816;2022-10-16T08:01:18;16.60;83.20
64888;DHT22;51386;53.082;8.816;2022-10-16T08:03:47;16.60;83.30
64888;DHT22;51386;53.082;8.816;2022-10-16T08:06:17;16.60;83.30
64888;DHT22;51386;53.082;8.816;2022-10-16T08:08:52;16.70;83.30
64888;DHT22;51386;53.082;8.816;2022-10-16T08:11:21;16.70;82.80
64888;DHT22;51386;53.082;8.816;2022-10-16T08:13:49;16.80;82.90
64888;DHT22;51386;53.082;8.816;2022-10-16T08:16:17;16.90;82.60
64888;DHT22;51386;53.082;8.816;2022-10-16T08:18:44;17.00;82.70
64888;DHT22;51386;53.082;8.816;2022-10-16T08:21:14;17.10;82.20
64888;DHT22;51386;53.082;8.816;2022-10-16T08:23:47;17.20;81.80
64888;DHT22;51386;53.082;8.816;2022-10-16T08:26:25;17.30;81.80
64888;DHT22;51386;53.082;8.816;2022-10-16T08:28:53;17.40;80.60
64888;DHT22;51386;53.082;8.816;2022-10-16T08:31:22;17.50;80.60
64888;DHT22;51386;53.082;8.816;2022-10-16T08:33:49;17.60;80.20
64888;DHT22;51386;53.082;8.816;2022-10-16T08:36:18;17.70;80.10
64888;DHT22;51386;53.082;8.816;2022-10-16T08:38:48;17.80;79.00
64888;DHT22;51386;53.082;8.816;2022-10-16T08:47:48;18.20;77.10
64888;DHT22;51386;53.082;8.816;2022-10-16T08:50:23;18.50;78.50
64888;DHT22;51386;53.082;8.816;2022-10-16T08:52:55;18.80;76.30
64888;DHT22;51386;53.082;8.816;2022-10-16T08:55:30;19.10;73.90
64888;DHT22;51386;53.082;8.816;2022-10-16T08:58:12;19.30;73.30
64888;DHT22;51386;53.082;8.816;2022-10-16T09:00:42;19.40;72.70
64888;DHT22;51386;53.082;8.816;2022-10-16T09:03:22;19.50;71.90
64888;DHT22;51386;53.082;8.816;2022-10-16T09:06:10;19.50;71.90
64888;DHT22;51386;53.082;8.816;2022-10-16T09:09:10;19.60;71.60
64888;DHT22;51386;53.082;8.816;2022-10-16T09:11:59;19.70;71.20
64888;DHT22;51386;53.082;8.816;2022-10-16T09:14:45;19.80;71.30
64888;DHT22;51386;53.082;8.816;2022-10-16T09:17:32;19.90;70.10
64888;DHT22;51386;53.082;8.816;2022-10-16T09:20:20;20.00;69.90
64888;DHT22;51386;53.082;8.816;2022-10-16T09:23:01;20.30;69.40
64888;DHT22;51386;53.082;8.816;2022-10-16T09:25:43;20.50;67.10
64888;DHT22;51386;53.082;8.816;2022-10-16T09:28:14;21.00;68.40
64888;DHT22;51386;53.082;8.816;2022-10-16T09:30:45;21.40;68.00
64888;DHT22;51386;53.082;8.816;2022-10-16T09:33:13;21.90;65.70
64888;DHT22;51386;53.082;8.816;2022-10-16T09:35:44;22.20;62.90
64888;DHT22;51386;53.082;8.816;2022-10-16T09:38:24;22.30;60.70
64888;DHT22;51386;53.082;8.816;2022-10-16T09:40:56;22.10;59.70
64888;DHT22;51386;53.082;8.816;2022-10-16T09:43:34;22.00;59.90
64888;DHT22;51386;53.082;8.816;2022-10-16T09:46:08;21.80;60.80
64888;DHT22;51386;53.082;8.816;2022-10-16T09:48:50;21.60;60.80
64888;DHT22;51386;53.082;8.816;2022-10-16T09:51:24;21.50;61.70
64888;DHT22;51386;53.082;8.816;2022-10-16T09:53:58;21.40;61.40
64888;DHT22;51386;53.082;8.816;2022-10-16T09:56:28;21.40;62.00
64888;DHT22;51386;53.082;8.816;2022-10-16T09:59:01;21.30;61.10
64888;DHT22;51386;53.082;8.816;2022-10-16T10:01:38;21.50;61.50
64888;DHT22;51386;53.082;8.816;2022-10-16T10:04:08;21.50;61.40
64888;DHT22;51386;53.082;8.816;2022-10-16T10:06:40;21.50;61.40
64888;DHT22;51386;53.082;8.816;2022-10-16T10:09:17;21.60;61.00
64888;DHT22;51386;53.082;8.816;2022-10-16T10:11:51;21.60;60.80
64888;DHT22;51386;53.082;8.816;2022-10-16T10:14:27;21.70;61.00
64888;DHT22;51386;53.082;8.816;2022-10-16T10:17:14;21.70;60.40
64888;DHT22;51386;53.082;8.816;2022-10-16T10:19:49;21.70;60.40
64888;DHT22;51386;53.082;8.816;2022-10-16T10:22:24;21.70;60.50
64888;DHT22;51386;53.082;8.816;2022-10-16T10:24:56;21.70;59.80
64888;DHT22;51386;53.082;8.816;2022-10-16T10:27:34;21.70;59.40
64888;DHT22;51386;53.082;8.816;2022-10-16T10:30:16;21.80;59.20
64888;DHT22;51386;53.082;8.816;2022-10-16T10:32:57;21.70;60.10
64888;DHT22;51386;53.082;8.816;2022-10-16T10:35:44;21.70;59.50
64888;DHT22;51386;53.082;8.816;2022-10-16T10:38:38;21.60;59.70
64888;DHT22;51386;53.082;8.816;2022-10-16T10:41:24;21.60;60.20
64888;DHT22;51386;53.082;8.816;2022-10-16T10:44:13;21.50;59.50
64888;DHT22;51386;53.082;8.816;2022-10-16T10:46:50;21.50;59.90
64888;DHT22;51386;53.082;8.816;2022-10-16T10:49:41;21.40;60.10
64888;DHT22;51386;53.082;8.816;2022-10-16T10:52:42;21.50;60.00
64888;DHT22;51386;53.082;8.816;2022-10-16T10:55:24;21.40;59.60
64888;DHT22;51386;53.082;8.816;2022-10-16T10:58:15;21.40;60.30
64888;DHT22;51386;53.082;8.816;2022-10-16T11:01:04;21.40;58.90
64888;DHT22;51386;53.082;8.816;2022-10-16T11:03:57;21.60;58.90
64888;DHT22;51386;53.082;8.816;2022-10-16T11:06:42;21.90;58.10
64888;DHT22;51386;53.082;8.816;2022-10-16T11:09:17;22.30;57.50
64888;DHT22;51386;53.082;8.816;2022-10-16T11:11:52;22.80;56.60
64888;DHT22;51386;53.082;8.816;2022-10-16T11:14:29;23.30;56.40
64888;DHT22;51386;53.082;8.816;2022-10-16T11:17:04;23.70;54.60
64888;DHT22;51386;53.082;8.816;2022-10-16T11:19:39;24.00;54.60
64888;DHT22;51386;53.082;8.816;2022-10-16T11:22:17;24.10;52.70
64888;DHT22;51386;53.082;8.816;2022-10-16T11:24:51;24.10;52.20
64888;DHT22;51386;53.082;8.816;2022-10-16T11:27:36;24.00;52.20
64888;DHT22;51386;53.082;8.816;2022-10-16T11:30:14;23.70;51.80
64888;DHT22;51386;53.082;8.816;2022-10-16T11:33:04;23.60;51.50
64888;DHT22;51386;53.082;8.816;2022-10-16T11:35:47;23.50;51.80
64888;DHT22;51386;53.082;8.816;2022-10-16T11:38:27;23.40;51.90
64888;DHT22;51386;53.082;8.816;2022-10-16T11:41:02;23.30;51.80
64888;DHT22;51386;53.082;8.816;2022-10-16T11:43:50;23.20;52.50
64888;DHT22;51386;53.082;8.816;2022-10-16T11:46:27;23.10;52.90
64888;DHT22;51386;53.082;8.816;2022-10-16T11:49:06;23.00;53.00
64888;DHT22;51386;53.082;8.816;2022-10-16T11:51:42;22.80;52.20
64888;DHT22;51386;53.082;8.816;2022-10-16T11:54:22;22.70;52.40
64888;DHT22;51386;53.082;8.816;2022-10-16T11:56:58;22.50;52.60
64888;DHT22;51386;53.082;8.816;2022-10-16T11:59:37;22.30;52.10
64888;DHT22;51386;53.082;8.816;2022-10-16T12:02:29;22.30;52.70
64888;DHT22;51386;53.082;8.816;2022-10-16T12:05:13;22.30;52.80
64888;DHT22;51386;53.082;8.816;2022-10-16T12:07:54;22.20;52.60
64888;DHT22;51386;53.082;8.816;2022-10-16T12:10:32;22.20;53.80
64888;DHT22;51386;53.082;8.816;2022-10-16T12:13:32;22.30;52.10
64888;DHT22;51386;53.082;8.816;2022-10-16T12:16:19;22.50;52.20
64888;DHT22;51386;53.082;8.816;2022-10-16T12:18:49;22.50;51.80
64888;DHT22;51386;53.082;8.816;2022-10-16T12:21:36;22.50;51.60
64888;DHT22;51386;53.082;8.816;2022-10-16T12:24:05;22.30;51.90
64888;DHT22;51386;53.082;8.816;2022-10-16T12:26:38;22.30;52.70
64888;DHT22;51386;53.082;8.816;2022-10-16T12:29:17;22.20;53.00
64888;DHT22;51386;53.082;8.816;2022-10-16T12:31:50;22.30;53.00
64888;DHT22;51386;53.082;8.816;2022-10-16T12:34:29;22.40;52.90
64888;DHT22;51386;53.082;8.816;2022-10-16T12:37:10;22.60;52.10
64888;DHT22;51386;53.082;8.816;2022-10-16T12:39:41;22.80;51.50
64888;DHT22;51386;53.082;8.816;2022-10-16T12:42:31;23.00;51.00
64888;DHT22;51386;53.082;8.816;2022-10-16T12:45:00;23.00;50.50
64888;DHT22;51386;53.082;8.816;2022-10-16T12:47:48;23.00;49.30
64888;DHT22;51386;53.082;8.816;2022-10-16T12:50:27;22.90;48.70
64888;DHT22;51386;53.082;8.816;2022-10-16T12:53:01;22.70;48.00
64888;DHT22;51386;53.082;8.816;2022-10-16T12:55:35;22.50;48.20
64888;DHT22;51386;53.082;8.816;2022-10-16T12:58:32;22.40;48.30
64888;DHT22;51386;53.082;8.816;2022-10-16T13:01:19;22.30;48.40
64888;DHT22;51386;53.082;8.816;2022-10-16T13:07:28;22.30;47.90
64888;DHT22;51386;53.082;8.816;2022-10-16T13:10:14;22.40;48.40
64888;DHT22;51386;53.082;8.816;2022-10-16T13:13:26;22.50;48.30
64888;DHT22;51386;53.082;8.816;2022-10-16T13:16:16;22.50;48.00
64888;DHT22;51386;53.082;8.816;2022-10-16T13:18:57;22.50;48.00
64888;DHT22;51386;53.082;8.816;2022-10-16T13:21:43;22.50;48.50
64888;DHT22;51386;53.082;8.816;2022-10-16T13:24:28;22.40;48.60
64888;DHT22;51386;53.082;8.816;2022-10-16T13:27:23;22.30;49.40
64888;DHT22;51386;53.082;8.816;2022-10-16T13:30:10;22.20;48.30
64888;DHT22;51386;53.082;8.816;2022-10-16T13:32:43;22.20;48.90
64888;DHT22;51386;53.082;8.816;2022-10-16T13:35:21;22.10;49.80
64888;DHT22;51386;53.082;8.816;2022-10-16T13:37:51;22.20;49.30
64888;DHT22;51386;53.082;8.816;2022-10-16T13:40:20;22.30;49.10
64888;DHT22;51386;53.082;8.816;2022-10-16T13:42:50;22.40;49.20
64888;DHT22;51386;53.082;8.816;2022-10-16T13:45:22;22.40;48.90
64888;DHT22;51386;53.082;8.816;2022-10-16T13:48:02;22.30;48.50
64888;DHT22;51386;53.082;8.816;2022-10-16T13:50:30;22.20;48.90
64888;DHT22;51386;53.082;8.816;2022-10-16T13:53:05;22.10;48.60
64888;DHT22;51386;53.082;8.816;2022-10-16T13:55:33;22.00;48.70
64888;DHT22;51386;53.082;8.816;2022-10-16T13:58:08;21.90;49.30
64888;DHT22;51386;53.082;8.816;2022-10-16T14:00:42;21.90;49.20
64888;DHT22;51386;53.082;8.816;2022-10-16T14:03:21;21.80;49.20
64888;DHT22;51386;53.082;8.816;2022-10-16T14:05:51;21.70;49.50
64888;DHT22;51386;53.082;8.816;2022-10-16T14:08:20;21.70;49.30
64888;DHT22;51386;53.082;8.816;2022-10-16T14:10:51;21.70;49.40
64888;DHT22;51386;53.082;8.816;2022-10-16T14:13:27;21.60;48.30
64888;DHT22;51386;53.082;8.816;2022-10-16T14:16:04;21.50;48.20
64888;DHT22;51386;53.082;8.816;2022-10-16T14:18:34;21.40;48.70
64888;DHT22;51386;53.082;8.816;2022-10-16T14:21:06;21.30;49.20
64888;DHT22;51386;53.082;8.816;2022-10-16T14:23:42;21.30;49.20
64888;DHT22;51386;53.082;8.816;2022-10-16T14:26:15;21.30;49.60
64888;DHT22;51386;53.082;8.816;2022-10-16T14:28:46;21.20;49.40
64888;DHT22;51386;53.082;8.816;2022-10-16T14:31:28;21.10;49.50
64888;DHT22;51386;53.082;8.816;2022-10-16T14:33:58;21.10;50.40
64888;DHT22;51386;53.082;8.816;2022-10-16T14:36:27;21.00;49.70
64888;DHT22;51386;53.082;8.816;2022-10-16T14:39:01;21.00;50.80
64888;DHT22;51386;53.082;8.816;2022-10-16T14:41:31;21.00;50.10
64888;DHT22;51386;53.082;8.816;2022-10-16T14:44:10;21.00;50.10
64888;DHT22;51386;53.082;8.816;2022-10-16T14:46:42;20.90;49.90
64888;DHT22;51386;53.082;8.816;2022-10-16T14:49:16;20.90;50.10
64888;DHT22;51386;53.082;8.816;2022-10-16T14:51:47;20.90;49.70
64888;DHT22;51386;53.082;8.816;2022-10-16T14:54:16;20.80;50.00
64888;DHT22;51386;53.082;8.816;2022-10-16T14:56:47;20.80;50.20
64888;DHT22;51386;53.082;8.816;2022-10-16T14:59:23;20.70;50.40
64888;DHT22;51386;53.082;8.816;2022-10-16T15:02:01;20.70;50.50
64888;DHT22;51386;53.082;8.816;2022-10-16T15:04:43;20.70;50.70
64888;DHT22;51386;53.082;8.816;2022-10-16T15:07:10;20.70;50.90
64888;DHT22;51386;53.082;8.816;2022-10-16T15:09:37;20.70;50.90
64888;DHT22;51386;53.082;8.816;2022-10-16T15:12:05;20.60;51.10
64888;DHT22;51386;53.082;8.816;2022-10-16T15:14:32;20.60;51.30
64888;DHT22;51386;53.082;8.816;2022-10-16T15:17:01;20.60;51.50
64888;DHT22;51386;53.082;8.816;2022-10-16T15:19:29;20.50;51.60
64888;DHT22;51386;53.082;8.816;2022-10-16T15:21:56;20.40;52.00
64888;DHT22;51386;53.082;8.816;2022-10-16T15:24:24;20.40;52.30
64888;DHT22;51386;53.082;8.816;2022-10-16T15:26:54;20.40;52.50
64888;DHT22;51386;53.082;8.816;2022-10-16T15:29:22;20.40;52.80
64888;DHT22;51386;53.082;8.816;2022-10-16T15:31:50;20.40;52.90
64888;DHT22;51386;53.082;8.816;2022-10-16T15:34:19;20.40;53.00
64888;DHT22;51386;53.082;8.816;2022-10-16T15:36:50;20.40;53.10
64888;DHT22;51386;53.082;8.816;2022-10-16T15:39:19;20.30;53.20
64888;DHT22;51386;53.082;8.816;2022-10-16T15:41:53;20.30;53.40
64888;DHT22;51386;53.082;8.816;2022-10-16T15:44:21;20.30;53.60
64888;DHT22;51386;53.082;8.816;2022-10-16T15:46:56;20.30;54.40
64888;DHT22;51386;53.082;8.816;2022-10-16T15:49:25;20.20;54.00
64888;DHT22;51386;53.082;8.816;2022-10-16T15:51:52;20.20;54.20
64888;DHT22;51386;53.082;8.816;2022-10-16T15:54:22;20.20;54.30
64888;DHT22;51386;53.082;8.816;2022-10-16T15:56:49;20.10;54.50
64888;DHT22;51386;53.082;8.816;2022-10-16T15:59:17;20.10;54.60
64888;DHT22;51386;53.082;8.816;2022-10-16T16:01:44;20.10;54.70
64888;DHT22;51386;53.082;8.816;2022-10-16T16:04:11;20.10;54.90
64888;DHT22;51386;53.082;8.816;2022-10-16T16:07:00;20.10;55.00
64888;DHT22;51386;53.082;8.816;2022-10-16T16:09:29;20.00;55.10
64888;DHT22;51386;53.082;8.816;2022-10-16T16:11:56;20.10;55.40
64888;DHT22;51386;53.082;8.816;2022-10-16T16:14:27;20.00;55.40